Terminal Aerodrome Forecast
Issued by NWS Cleveland, OH

Home | Current Version | Previous Version | Graphics & Text | Print | Product List | Glossary On
Versions: 1 2 3 4 5 6 7 8 9 10 11 12 13 14 15 16
000
FTUS41 KCLE 210523
TAFYNG
TAF
KYNG 210523Z 2106/2206 20012G18KT P6SM SCT080 BKN200
     FM211400 25012KT 5SM -SHRA OVC025
     FM211600 30012KT 3SM -SHRA BR OVC007
     FM212000 34011KT 6SM -SHRA BR SCT010 OVC020
     FM220500 01009KT P6SM VCSH OVC015=

USA.gov is the U.S. government's official web portal to all federal, state and local government web resources and services.